Time;durP1;ratioP1;P1;durP2;ratioP2;P2;SDS_P1;SDS_P2;PMS_P1;PMS_P2;Temp;Humidity;BMP_temperature;BMP_pressure;BME280_temperature;BME280_humidity;BME280_pressure;Samples;Min_cycle;Max_cycle;Signal;HPM_P1;HPM_P2
2022/06/10 00:00:55;;;;;;;4.82;4.43;;;16.10;99.90;;;;;;7373772;19;20411;-82
2022/06/10 00:03:23;;;;;;;4.40;4.00;;;16.00;99.90;;;;;;7376161;19;20362;-84
2022/06/10 00:05:49;;;;;;;3.95;3.58;;;16.00;99.90;;;;;;7371018;19;20352;-88
2022/06/10 00:08:17;;;;;;;3.87;3.57;;;16.00;99.90;;;;;;7375760;19;20335;-87
2022/06/10 00:10:45;;;;;;;3.80;3.45;;;16.00;99.90;;;;;;7376617;19;20746;-79
2022/06/10 00:13:11;;;;;;;3.58;3.00;;;16.00;99.90;;;;;;7373712;19;20672;-84
2022/06/10 00:15:37;;;;;;;3.22;3.03;;;16.00;99.90;;;;;;7376541;19;20548;-84
2022/06/10 00:18:03;;;;;;;3.50;3.23;;;16.00;99.90;;;;;;7380192;19;20801;-84
2022/06/10 00:20:29;;;;;;;4.05;3.75;;;16.00;99.90;;;;;;7371828;19;20607;-82
2022/06/10 00:22:55;;;;;;;4.57;4.10;;;16.10;99.90;;;;;;7372692;19;20336;-83
2022/06/10 00:25:21;;;;;;;4.00;3.60;;;15.90;99.90;;;;;;7371230;19;20388;-81
2022/06/10 00:27:47;;;;;;;3.58;3.28;;;15.80;99.90;;;;;;7377189;19;20320;-82
2022/06/10 00:30:13;;;;;;;3.78;3.47;;;15.80;99.90;;;;;;7379923;19;20331;-87
2022/06/10 00:32:38;;;;;;;3.90;3.58;;;15.70;99.90;;;;;;7378673;19;20706;-85
2022/06/10 00:35:04;;;;;;;3.80;3.50;;;15.70;99.90;;;;;;7375591;19;20768;-87
2022/06/10 00:37:30;;;;;;;2.90;2.70;;;15.60;99.90;;;;;;7378436;19;20850;-81
2022/06/10 00:39:56;;;;;;;3.03;2.83;;;15.60;99.90;;;;;;7384051;19;20672;-85
2022/06/10 00:42:21;;;;;;;3.77;3.47;;;15.60;99.90;;;;;;7378780;19;20412;-85
2022/06/10 00:44:52;;;;;;;4.03;3.63;;;15.60;99.90;;;;;;7384626;19;20353;-87
2022/06/10 00:47:24;;;;;;;3.63;3.03;;;15.60;99.90;;;;;;7382354;19;20361;-83
2022/06/10 00:49:53;;;;;;;3.55;3.25;;;15.60;99.90;;;;;;7377160;19;20313;-86
2022/06/10 00:52:24;;;;;;;3.67;3.38;;;15.50;99.90;;;;;;7368258;19;21065;-84
2022/06/10 00:54:51;;;;;;;3.60;3.30;;;15.50;99.90;;;;;;7368981;19;20345;-85
2022/06/10 00:57:19;;;;;;;3.50;3.20;;;15.50;99.90;;;;;;7353177;19;20926;-82
2022/06/10 00:59:51;;;;;;;3.30;3.00;;;15.50;99.90;;;;;;7373743;19;20967;-87
2022/06/10 01:02:18;;;;;;;2.88;2.67;;;15.50;99.90;;;;;;7371075;19;20333;-80
2022/06/10 01:04:44;;;;;;;3.15;2.85;;;15.40;99.90;;;;;;7375004;19;20348;-84
2022/06/10 01:07:10;;;;;;;3.55;3.20;;;15.40;99.90;;;;;;7372269;19;20332;-84
2022/06/10 01:09:36;;;;;;;4.30;3.10;;;15.30;99.90;;;;;;7377519;19;20315;-82
2022/06/10 01:12:25;;;;;;;2.80;2.60;;;15.20;99.90;;;;;;7374937;19;20344;-81
2022/06/10 01:15:09;;;;;;;3.25;2.95;;;15.20;99.90;;;;;;7277034;19;2004344;-85
2022/06/10 01:18:08;;;;;;;3.13;2.83;;;15.20;99.90;;;;;;7378348;19;20355;-81
2022/06/10 01:21:10;;;;;;;2.70;2.50;;;15.10;99.90;;;;;;7270677;19;2004349;-82
2022/06/10 01:23:57;;;;;;;4.90;3.30;;;15.10;99.90;;;;;;7268490;19;2004471;-86
2022/06/10 01:30:14;;;;;;;4.35;2.80;;;15.00;99.90;;;;;;7186702;19;2004328;-85
2022/06/10 01:33:07;;;;;;;3.85;3.00;;;15.00;99.90;;;;;;7181599;19;2004558;-83
2022/06/10 01:35:39;;;;;;;3.25;2.95;;;15.00;99.90;;;;;;7386344;19;20333;-83
2022/06/10 01:38:05;;;;;;;3.42;3.13;;;15.00;99.90;;;;;;7388737;19;20332;-88
2022/06/10 01:40:46;;;;;;;3.47;3.20;;;15.00;99.90;;;;;;7386492;19;20327;-86
2022/06/10 01:43:52;;;;;;;3.42;3.10;;;14.90;99.90;;;;;;7387730;19;20352;-85
2022/06/10 01:46:28;;;;;;;3.10;2.80;;;14.90;99.90;;;;;;7281029;19;2004171;-83
2022/06/10 01:49:18;;;;;;;3.20;2.90;;;14.90;99.90;;;;;;7388384;19;20340;-83
2022/06/10 01:52:11;;;;;;;3.00;2.80;;;14.80;99.90;;;;;;7377436;19;20357;-81
2022/06/10 01:54:44;;;;;;;3.03;2.80;;;14.80;99.90;;;;;;7280883;19;2004487;-83
2022/06/10 01:57:15;;;;;;;3.00;2.70;;;14.80;99.90;;;;;;7388876;19;20333;-85
2022/06/10 01:59:44;;;;;;;3.42;3.13;;;14.80;99.90;;;;;;7390180;19;20316;-87
2022/06/10 02:02:15;;;;;;;3.30;3.00;;;14.80;99.90;;;;;;7385603;19;20345;-84
2022/06/10 02:04:46;;;;;;;2.97;2.70;;;14.70;99.90;;;;;;7385050;19;20312;-80
2022/06/10 02:07:30;;;;;;;3.42;3.13;;;14.70;99.90;;;;;;7384515;19;20339;-81
2022/06/10 02:10:09;;;;;;;4.50;3.30;;;14.70;99.90;;;;;;7387552;19;20313;-87
2022/06/10 02:12:40;;;;;;;2.40;2.20;;;14.60;99.90;;;;;;7379894;19;20880;-85
2022/06/10 02:15:13;;;;;;;3.25;3.03;;;14.60;99.90;;;;;;7383229;19;20328;-84
2022/06/10 02:17:49;;;;;;;2.90;2.70;;;14.60;99.90;;;;;;7383712;19;20336;-81
2022/06/10 02:20:19;;;;;;;2.80;2.60;;;14.60;99.90;;;;;;7278842;19;2004293;-83
2022/06/10 02:22:45;;;;;;;3.33;2.70;;;14.60;99.90;;;;;;7377126;19;20447;-80
2022/06/10 02:25:16;;;;;;;2.38;2.25;;;14.60;99.90;;;;;;7384911;19;20377;-87
2022/06/10 02:27:46;;;;;;;3.13;2.85;;;14.60;99.90;;;;;;7363911;19;20323;-85
2022/06/10 02:30:23;;;;;;;3.38;3.08;;;14.60;99.90;;;;;;7388312;19;20313;-85
2022/06/10 02:32:49;;;;;;;2.75;2.55;;;14.50;99.90;;;;;;7284967;19;2004459;-85
2022/06/10 02:35:15;;;;;;;3.15;2.85;;;14.40;99.90;;;;;;7383466;19;20412;-86
2022/06/10 02:38:09;;;;;;;3.50;3.03;;;14.40;99.90;;;;;;7385854;19;20896;-82
2022/06/10 02:40:40;;;;;;;2.80;2.60;;;14.40;99.90;;;;;;7380280;19;20308;-83
2022/06/10 02:43:32;;;;;;;3.00;2.60;;;14.30;99.90;;;;;;7383669;19;20399;-89
2022/06/10 02:46:13;;;;;;;2.97;2.70;;;14.40;99.90;;;;;;7274643;19;2004633;-85
2022/06/10 02:48:47;;;;;;;2.95;2.63;;;14.40;99.90;;;;;;7281594;19;2004311;-83
2022/06/10 02:51:14;;;;;;;3.00;2.80;;;14.40;99.90;;;;;;7271815;19;2004511;-86
2022/06/10 02:53:41;;;;;;;2.70;2.50;;;14.30;99.90;;;;;;7384759;19;20340;-85
2022/06/10 02:56:23;;;;;;;2.65;2.38;;;14.30;99.90;;;;;;7380665;19;21075;-87
2022/06/10 03:02:12;;;;;;;2.47;2.27;;;14.30;99.90;;;;;;7377244;19;20348;-81
2022/06/10 03:04:59;;;;;;;2.60;2.40;;;14.30;99.90;;;;;;7282316;19;2004654;-84
2022/06/10 03:07:33;;;;;;;5.23;3.00;;;14.30;99.90;;;;;;7385848;19;20314;-81
2022/06/10 03:10:31;;;;;;;2.60;2.40;;;14.30;99.90;;;;;;7388419;19;20337;-87
2022/06/10 03:13:26;;;;;;;2.73;2.53;;;14.30;99.90;;;;;;7288421;19;2004388;-88
2022/06/10 03:16:37;;;;;;;2.60;2.40;;;14.30;99.90;;;;;;7278694;19;2004868;-86
2022/06/10 03:19:25;;;;;;;2.28;2.15;;;14.30;99.90;;;;;;7177406;19;2004848;-82
2022/06/10 03:21:55;;;;;;;2.60;2.40;;;14.20;99.90;;;;;;7271151;19;2004671;-86
2022/06/10 03:24:26;;;;;;;2.65;2.45;;;14.20;99.90;;;;;;7384175;19;20309;-84
2022/06/10 03:27:22;;;;;;;2.85;2.65;;;14.20;99.90;;;;;;7277538;19;2004570;-89
2022/06/10 03:29:57;;;;;;;3.95;2.72;;;14.10;99.90;;;;;;7276691;19;2004467;-84
2022/06/10 03:32:40;;;;;;;2.42;2.22;;;14.10;99.90;;;;;;7378146;19;20341;-87
2022/06/10 03:35:16;;;;;;;2.75;2.55;;;14.10;99.90;;;;;;7378688;19;20856;-88
2022/06/10 03:37:42;;;;;;;2.58;2.38;;;14.20;99.90;;;;;;7374579;19;20321;-82
2022/06/10 03:40:18;;;;;;;2.77;2.50;;;14.20;99.90;;;;;;7373434;19;20446;-84
2022/06/10 03:42:46;;;;;;;4.05;2.40;;;14.20;99.90;;;;;;7378588;19;20366;-85
2022/06/10 03:45:15;;;;;;;3.23;2.30;;;14.20;99.90;;;;;;7378301;19;20316;-87
2022/06/10 03:47:41;;;;;;;4.25;3.72;;;14.30;99.90;;;;;;7378664;19;20317;-82
2022/06/10 03:50:09;;;;;;;5.43;3.45;;;14.40;99.90;;;;;;7366689;19;20381;-83
2022/06/10 03:52:37;;;;;;;2.97;2.40;;;14.40;99.90;;;;;;7379404;19;20887;-87
2022/06/10 03:55:04;;;;;;;2.47;2.15;;;14.40;99.90;;;;;;7383404;19;20349;-88
2022/06/10 03:57:30;;;;;;;2.33;2.13;;;14.40;99.90;;;;;;7376634;19;20347;-83
2022/06/10 03:59:56;;;;;;;2.63;2.25;;;14.50;99.90;;;;;;7380958;19;20336;-86
2022/06/10 04:02:22;;;;;;;2.10;2.00;;;14.50;99.90;;;;;;7378580;19;20341;-84
2022/06/10 04:04:48;;;;;;;2.60;2.40;;;14.60;99.90;;;;;;7386191;19;20353;-88
2022/06/10 04:07:17;;;;;;;2.30;2.20;;;14.60;99.90;;;;;;7378183;19;20743;-84
2022/06/10 04:09:43;;;;;;;2.03;1.83;;;14.70;99.90;;;;;;7386542;19;20340;-85
2022/06/10 04:12:10;;;;;;;2.28;2.08;;;14.70;99.90;;;;;;7379304;19;20376;-86
2022/06/10 04:14:37;;;;;;;2.40;2.20;;;14.80;99.90;;;;;;7384645;19;20326;-87
2022/06/10 04:17:04;;;;;;;2.30;2.10;;;14.90;99.90;;;;;;7378245;19;20337;-82
2022/06/10 04:19:30;;;;;;;2.90;2.25;;;14.90;99.90;;;;;;7378771;19;20331;-87
2022/06/10 04:21:57;;;;;;;2.53;2.20;;;15.00;99.90;;;;;;7380470;19;20333;-90
2022/06/10 04:24:23;;;;;;;1.98;1.88;;;15.10;99.90;;;;;;7381964;19;20350;-86
2022/06/10 04:26:49;;;;;;;3.97;2.20;;;15.10;99.90;;;;;;7375068;19;20661;-89
2022/06/10 04:29:15;;;;;;;2.28;2.10;;;15.20;99.90;;;;;;7378726;19;20341;-81
2022/06/10 04:31:41;;;;;;;2.33;2.13;;;15.30;99.90;;;;;;7366662;19;20358;-84
2022/06/10 04:34:07;;;;;;;4.63;2.67;;;15.30;99.90;;;;;;7377406;19;20340;-84
2022/06/10 04:36:33;;;;;;;2.63;2.35;;;15.40;99.90;;;;;;7374409;19;20320;-84
2022/06/10 04:38:59;;;;;;;2.67;2.20;;;15.50;99.90;;;;;;7371973;19;20316;-87
2022/06/10 04:41:26;;;;;;;2.80;2.20;;;15.60;99.90;;;;;;7374506;19;20339;-86
2022/06/10 04:43:52;;;;;;;2.20;2.00;;;15.60;99.90;;;;;;7366903;19;20333;-86
2022/06/10 04:46:25;;;;;;;2.28;2.08;;;15.70;99.90;;;;;;7364793;19;20324;-91
2022/06/10 04:48:52;;;;;;;2.40;1.90;;;15.80;99.90;;;;;;7372663;19;20338;-88
2022/06/10 04:51:19;;;;;;;2.17;2.08;;;15.80;99.90;;;;;;7376403;19;20353;-84
2022/06/10 04:53:46;;;;;;;1.95;1.80;;;15.80;99.90;;;;;;7374837;19;20312;-84
2022/06/10 04:56:16;;;;;;;2.50;2.30;;;16.00;99.90;;;;;;7370536;19;20321;-85
2022/06/10 04:58:43;;;;;;;2.20;2.03;;;16.00;99.90;;;;;;7366931;19;20331;-86
2022/06/10 05:01:13;;;;;;;2.30;2.10;;;16.20;99.90;;;;;;7304723;19;20336;-86
2022/06/10 05:03:53;;;;;;;3.43;2.30;;;16.30;99.90;;;;;;7367643;19;20866;-84
2022/06/10 05:06:31;;;;;;;2.10;2.00;;;16.30;99.90;;;;;;7323451;19;20453;-83
2022/06/10 05:09:13;;;;;;;2.40;2.20;;;16.40;99.90;;;;;;7334436;19;24161;-86
2022/06/10 05:11:53;;;;;;;2.97;2.03;;;16.60;99.90;;;;;;7347624;19;20345;-85
2022/06/10 05:14:22;;;;;;;1.90;1.80;;;16.70;99.90;;;;;;7284226;19;20361;-83
2022/06/10 05:16:49;;;;;;;2.00;1.90;;;16.70;99.90;;;;;;7398702;19;20339;-82
2022/06/10 05:19:15;;;;;;;3.13;1.97;;;16.80;99.90;;;;;;7397509;19;20321;-85
2022/06/10 05:21:41;;;;;;;2.13;1.85;;;16.90;99.90;;;;;;7393134;19;20312;-84
2022/06/10 05:24:06;;;;;;;2.20;2.00;;;17.00;99.90;;;;;;7396385;19;20805;-87
2022/06/10 05:26:33;;;;;;;1.83;1.73;;;17.20;99.90;;;;;;7396036;19;20307;-88
2022/06/10 05:29:00;;;;;;;1.90;1.80;;;17.20;99.90;;;;;;7393852;19;20321;-89
2022/06/10 05:31:25;;;;;;;1.80;1.70;;;17.40;99.90;;;;;;7391861;19;20332;-81
2022/06/10 05:36:35;;;;;;;2.35;1.85;;;17.60;99.90;;;;;;7290571;19;2006041;-83
2022/06/10 05:39:01;;;;;;;1.97;1.77;;;17.60;99.90;;;;;;7393579;19;20329;-84
2022/06/10 05:44:11;;;;;;;1.80;1.70;;;18.00;99.90;;;;;;7390347;19;20347;-88
2022/06/10 05:46:37;;;;;;;1.70;1.60;;;18.10;99.90;;;;;;7393334;19;20313;-85
2022/06/10 05:49:02;;;;;;;2.10;1.70;;;18.20;99.90;;;;;;7390530;19;20686;-80
2022/06/10 05:51:28;;;;;;;1.50;1.40;;;18.30;99.90;;;;;;7387007;19;20333;-81
2022/06/10 05:53:54;;;;;;;1.50;1.40;;;18.40;99.90;;;;;;7391682;19;20348;-87
2022/06/10 05:56:20;;;;;;;1.50;1.40;;;18.40;99.90;;;;;;7388602;19;20336;-81
2022/06/10 05:58:46;;;;;;;1.42;1.40;;;18.50;99.90;;;;;;7391869;19;20340;-88
2022/06/10 06:01:12;;;;;;;1.50;1.40;;;18.60;99.90;;;;;;7394769;19;20345;-86
2022/06/10 06:03:38;;;;;;;1.80;1.70;;;18.70;99.90;;;;;;7397010;19;21297;-85
2022/06/10 06:06:04;;;;;;;1.85;1.55;;;18.80;99.90;;;;;;7391908;19;20313;-83
2022/06/10 06:08:30;;;;;;;1.45;1.35;;;18.90;99.90;;;;;;7395556;19;20354;-83
2022/06/10 06:10:56;;;;;;;1.58;1.48;;;19.00;99.90;;;;;;7396437;19;20320;-86
2022/06/10 06:13:21;;;;;;;2.10;1.50;;;19.10;99.90;;;;;;7400660;19;20305;-87
2022/06/10 06:15:47;;;;;;;2.33;1.40;;;19.30;99.90;;;;;;7394823;19;20335;-81
2022/06/10 06:18:13;;;;;;;1.90;1.40;;;19.30;99.90;;;;;;7396437;19;20332;-80
2022/06/10 06:20:39;;;;;;;1.95;1.65;;;19.40;99.90;;;;;;7393631;19;20551;-81
2022/06/10 06:23:05;;;;;;;1.40;1.30;;;19.60;99.90;;;;;;7402476;19;21576;-85
2022/06/10 06:25:31;;;;;;;1.10;1.10;;;19.60;99.90;;;;;;7389127;19;20341;-81
2022/06/10 06:27:57;;;;;;;1.45;1.35;;;19.60;99.90;;;;;;7399493;19;20323;-86
2022/06/10 06:30:31;;;;;;;2.28;1.35;;;19.60;99.90;;;;;;7399857;19;20365;-89
2022/06/10 06:32:58;;;;;;;1.58;1.30;;;19.70;99.90;;;;;;7397183;19;20357;-83
2022/06/10 06:35:23;;;;;;;1.30;1.20;;;19.70;99.90;;;;;;7387723;19;20309;-81
2022/06/10 06:37:49;;;;;;;1.80;1.00;;;20.00;99.90;;;;;;7386164;19;20460;-82
2022/06/10 06:40:15;;;;;;;2.63;1.50;;;20.10;99.90;;;;;;7392227;19;20313;-84
2022/06/10 06:42:40;;;;;;;1.60;1.50;;;20.20;99.90;;;;;;7385000;19;20307;-81
2022/06/10 06:45:08;;;;;;;1.58;1.42;;;20.20;99.90;;;;;;7398446;19;20360;-82
2022/06/10 06:47:33;;;;;;;1.40;1.20;;;20.10;99.90;;;;;;7391883;19;20332;-79
2022/06/10 06:49:59;;;;;;;1.90;1.30;;;20.20;99.90;;;;;;7402925;19;20341;-89
2022/06/10 06:52:25;;;;;;;1.38;1.27;;;20.30;99.90;;;;;;7354318;19;20332;-91
2022/06/10 06:54:51;;;;;;;2.67;1.73;;;20.20;99.90;;;;;;7404474;19;20345;-88
2022/06/10 06:57:18;;;;;;;2.45;1.20;;;20.20;99.90;;;;;;7403589;19;20702;-82
2022/06/10 06:59:43;;;;;;;2.25;1.60;;;20.30;99.90;;;;;;7404173;19;20301;-81
2022/06/10 07:02:10;;;;;;;1.93;1.47;;;20.40;99.90;;;;;;7403764;19;20333;-84
2022/06/10 07:04:36;;;;;;;1.98;1.52;;;20.10;99.90;;;;;;7409603;19;20316;-87
2022/06/10 07:07:03;;;;;;;2.42;1.48;;;20.40;99.90;;;;;;7404290;19;20308;-83
2022/06/10 07:09:29;;;;;;;3.38;1.50;;;20.70;99.90;;;;;;7416836;19;20309;-85
2022/06/10 07:11:55;;;;;;;1.52;1.40;;;21.00;99.90;;;;;;7413216;19;20325;-87
2022/06/10 07:14:22;;;;;;;3.25;1.80;;;21.30;99.90;;;;;;7412388;19;20293;-90
2022/06/10 07:16:51;;;;;;;2.65;1.60;;;21.40;99.90;;;;;;7409204;19;20304;-83
2022/06/10 07:19:19;;;;;;;1.83;1.35;;;21.40;99.90;;;;;;7405316;19;20321;-91
2022/06/10 07:21:45;;;;;;;1.73;1.40;;;21.10;99.90;;;;;;7402946;19;20321;-89
2022/06/10 07:24:11;;;;;;;1.80;1.30;;;21.40;99.90;;;;;;7408325;19;20307;-91
2022/06/10 07:26:37;;;;;;;2.80;1.38;;;21.60;99.90;;;;;;7410572;19;20381;-88
2022/06/10 07:29:02;;;;;;;2.23;1.63;;;21.40;99.90;;;;;;7411584;19;20444;-89
2022/06/10 07:31:28;;;;;;;2.80;1.50;;;21.50;99.90;;;;;;7415588;19;20328;-90
2022/06/10 07:33:54;;;;;;;4.47;1.40;;;21.60;99.90;;;;;;7414556;19;20333;-90
2022/06/10 07:36:19;;;;;;;3.40;1.50;;;21.30;99.90;;;;;;7411427;19;20599;-89
2022/06/10 07:38:45;;;;;;;3.30;1.30;;;21.40;99.90;;;;;;7410510;19;21136;-92
2022/06/10 07:43:55;;;;;;;1.58;1.38;;;21.90;99.90;;;;;;7413167;19;20340;-89
2022/06/10 07:46:21;;;;;;;2.73;1.13;;;22.00;99.90;;;;;;7410506;19;20312;-91
2022/06/10 07:48:47;;;;;;;2.17;1.55;;;22.40;99.90;;;;;;7416456;19;20372;-93
2022/06/10 07:51:13;;;;;;;2.00;1.50;;;22.50;99.90;;;;;;7413078;19;20345;-90
2022/06/10 07:53:41;;;;;;;2.47;1.50;;;22.90;99.90;;;;;;7412917;19;20332;-89
2022/06/10 07:56:07;;;;;;;1.90;1.50;;;23.30;99.90;;;;;;7411798;19;20412;-91
2022/06/10 07:58:32;;;;;;;3.72;1.40;;;23.20;99.90;;;;;;7413361;19;20324;-92
2022/06/10 08:00:58;;;;;;;1.60;1.20;;;23.20;99.90;;;;;;7407537;19;20341;-91
2022/06/10 08:03:24;;;;;;;3.40;1.40;;;23.10;99.90;;;;;;7407822;19;20347;-91
2022/06/10 08:05:50;;;;;;;1.30;1.20;;;23.20;99.90;;;;;;7407550;19;20325;-93
2022/06/10 08:08:16;;;;;;;2.30;1.40;;;23.30;99.90;;;;;;7409987;19;20329;-90
2022/06/10 08:10:42;;;;;;;1.05;1.05;;;23.40;99.90;;;;;;7410910;19;20385;-92
2022/06/10 08:13:08;;;;;;;2.40;1.33;;;23.70;99.90;;;;;;7413690;19;20338;-91
2022/06/10 08:15:34;;;;;;;1.23;1.03;;;23.50;98.40;;;;;;7412022;19;20345;-92
2022/06/10 08:17:59;;;;;;;1.42;0.93;;;23.60;99.50;;;;;;7410726;19;20363;-93
2022/06/10 08:23:23;;;;;;;2.17;1.33;;;23.20;98.70;;;;;;7305194;19;2004108;-92
2022/06/10 08:25:49;;;;;;;2.15;1.25;;;23.40;98.00;;;;;;7409675;19;20735;-90
2022/06/10 08:28:14;;;;;;;3.13;1.40;;;23.40;96.70;;;;;;7414381;19;20313;-93
2022/06/10 08:30:40;;;;;;;2.87;1.40;;;23.40;96.80;;;;;;7412727;19;20312;-89
2022/06/10 08:33:06;;;;;;;1.50;1.10;;;23.80;97.20;;;;;;7411371;19;20348;-91
2022/06/10 08:35:32;;;;;;;1.20;1.10;;;24.10;95.90;;;;;;7417125;19;20459;-93
2022/06/10 08:37:58;;;;;;;4.82;1.30;;;24.10;93.70;;;;;;7417209;19;20336;-93
2022/06/10 08:40:36;;;;;;;1.45;1.30;;;23.90;93.00;;;;;;7418369;19;20320;-90
2022/06/10 08:43:22;;;;;;;1.93;1.30;;;23.90;93.40;;;;;;7313835;19;2004235;-93
2022/06/10 08:45:53;;;;;;;1.30;1.20;;;23.90;92.80;;;;;;7312910;19;2004210;-93
2022/06/10 08:48:55;;;;;;;1.15;1.08;;;24.20;93.90;;;;;;7415962;19;20312;-89
2022/06/10 08:51:47;;;;;;;2.13;1.30;;;24.50;91.50;;;;;;7412185;19;20328;-92
2022/06/10 08:54:32;;;;;;;2.83;1.50;;;24.50;91.00;;;;;;7309097;19;2004433;-90
2022/06/10 08:57:02;;;;;;;2.53;1.23;;;24.50;92.00;;;;;;7411862;19;20364;-92
2022/06/10 08:59:35;;;;;;;2.70;1.40;;;24.10;92.30;;;;;;7412828;19;20321;-92
2022/06/10 09:02:39;;;;;;;2.30;1.25;;;24.30;91.80;;;;;;7404273;19;20337;-93
2022/06/10 09:05:10;;;;;;;2.85;1.20;;;24.30;90.80;;;;;;7304924;19;2004356;-91
2022/06/10 09:07:38;;;;;;;2.10;1.10;;;24.50;87.50;;;;;;7305548;19;2004571;-91
2022/06/10 09:10:05;;;;;;;1.75;1.20;;;24.60;88.20;;;;;;7407882;19;20340;-90
2022/06/10 09:12:38;;;;;;;2.50;1.25;;;24.90;90.80;;;;;;7407267;19;20324;-91
2022/06/10 09:15:04;;;;;;;1.20;1.03;;;25.00;89.60;;;;;;7404867;19;20307;-91
2022/06/10 09:17:39;;;;;;;2.70;1.25;;;25.20;90.60;;;;;;7405849;19;20348;-93
2022/06/10 09:20:09;;;;;;;1.20;1.08;;;24.60;84.80;;;;;;7409886;19;20351;-90
2022/06/10 09:22:46;;;;;;;2.47;1.30;;;25.10;88.50;;;;;;7410954;19;20323;-92
2022/06/10 09:25:25;;;;;;;2.55;1.20;;;25.20;87.20;;;;;;7405460;19;20721;-89
2022/06/10 09:27:56;;;;;;;1.52;1.08;;;25.10;86.70;;;;;;7386799;19;20769;-91
2022/06/10 09:30:28;;;;;;;1.10;0.80;;;25.10;90.30;;;;;;7405021;19;20354;-87
2022/06/10 09:33:03;;;;;;;2.10;1.30;;;25.10;85.70;;;;;;7399305;19;20336;-89
2022/06/10 09:36:00;;;;;;;2.13;1.10;;;25.20;86.10;;;;;;7294187;19;2004317;-87
2022/06/10 09:38:35;;;;;;;1.08;1.00;;;25.60;87.30;;;;;;7296064;19;2004426;-90
2022/06/10 09:41:07;;;;;;;1.90;1.30;;;25.60;85.40;;;;;;7399010;19;20333;-87
2022/06/10 09:43:43;;;;;;;2.40;1.20;;;26.10;84.90;;;;;;7401677;19;20325;-89
2022/06/10 09:46:46;;;;;;;4.40;1.20;;;25.90;84.90;;;;;;7397525;19;20378;-90
2022/06/10 09:49:20;;;;;;;1.40;1.17;;;26.10;86.00;;;;;;7303105;19;2004195;-89
2022/06/10 09:52:03;;;;;;;1.73;1.10;;;26.40;83.50;;;;;;7306460;19;2004205;-89
2022/06/10 09:54:47;;;;;;;3.13;1.30;;;26.20;82.70;;;;;;7303161;19;2004619;-87
2022/06/10 09:57:22;;;;;;;2.03;1.23;;;26.80;84.30;;;;;;7406036;19;20349;-89
2022/06/10 10:00:08;;;;;;;1.50;1.13;;;26.70;81.90;;;;;;7408011;19;20348;-86
2022/06/10 10:02:45;;;;;;;2.70;1.33;;;27.00;84.30;;;;;;7404660;19;22207;-84
2022/06/10 10:05:16;;;;;;;1.40;1.02;;;26.80;80.30;;;;;;7404973;19;20352;-85
2022/06/10 10:08:05;;;;;;;2.20;1.10;;;27.30;81.10;;;;;;7409932;19;20331;-82
2022/06/10 10:10:48;;;;;;;1.90;1.25;;;27.60;84.70;;;;;;7368580;19;20313;-83
2022/06/10 10:13:54;;;;;;;1.77;1.20;;;27.20;81.10;;;;;;7311629;19;2004335;-89
2022/06/10 10:16:43;;;;;;;2.42;1.23;;;27.00;81.70;;;;;;7305639;19;2004266;-86
2022/06/10 10:19:23;;;;;;;1.83;1.17;;;26.40;79.70;;;;;;7304037;19;2004320;-85
2022/06/10 10:22:12;;;;;;;2.55;1.40;;;27.10;81.60;;;;;;7395962;19;20341;-82
2022/06/10 10:24:40;;;;;;;1.50;1.30;;;27.70;81.70;;;;;;7410767;19;20372;-83
2022/06/10 10:27:23;;;;;;;1.65;1.30;;;27.70;81.00;;;;;;7398869;19;20345;-81
2022/06/10 10:29:56;;;;;;;1.52;1.23;;;27.10;82.20;;;;;;7415299;19;20720;-84
2022/06/10 10:32:29;;;;;;;4.97;1.42;;;27.20;79.80;;;;;;7414479;19;20357;-84
2022/06/10 10:35:03;;;;;;;1.55;1.20;;;27.20;78.10;;;;;;7412575;19;20360;-82
2022/06/10 10:37:31;;;;;;;1.73;1.13;;;27.30;80.90;;;;;;7416394;19;20309;-85
2022/06/10 10:40:03;;;;;;;2.80;1.13;;;27.60;75.50;;;;;;7415294;19;20312;-84
2022/06/10 10:42:31;;;;;;;2.70;1.40;;;27.30;77.70;;;;;;7416179;19;20324;-84
2022/06/10 10:45:15;;;;;;;2.17;1.30;;;27.00;74.30;;;;;;7417861;19;20345;-84
2022/06/10 10:47:47;;;;;;;1.58;1.20;;;27.60;76.30;;;;;;7422570;19;20324;-81
2022/06/10 10:50:18;;;;;;;2.10;1.40;;;27.40;75.00;;;;;;7420746;19;20327;-84
2022/06/10 10:52:45;;;;;;;1.25;1.15;;;26.60;75.50;;;;;;7420817;19;20338;-87
2022/06/10 10:55:14;;;;;;;3.13;1.33;;;26.90;80.00;;;;;;7420693;19;20849;-83
2022/06/10 10:57:45;;;;;;;3.63;1.63;;;27.50;77.50;;;;;;7416533;19;20357;-83
2022/06/10 11:00:10;;;;;;;1.10;1.08;;;26.40;75.20;;;;;;7416297;19;20308;-82
2022/06/10 11:02:39;;;;;;;3.30;1.40;;;27.30;78.10;;;;;;7422662;19;20354;-84
2022/06/10 11:05:17;;;;;;;2.00;1.15;;;27.50;76.40;;;;;;7422266;19;20345;-84
2022/06/10 11:07:43;;;;;;;1.50;1.40;;;28.10;75.70;;;;;;7420243;19;20293;-84
2022/06/10 11:10:22;;;;;;;1.97;1.40;;;28.50;79.30;;;;;;7422248;19;20350;-81
2022/06/10 11:12:50;;;;;;;1.73;1.20;;;28.60;73.20;;;;;;7419706;19;20346;-82
2022/06/10 11:15:27;;;;;;;2.20;1.40;;;29.00;73.40;;;;;;7419488;19;20300;-82
2022/06/10 11:17:57;;;;;;;3.10;1.38;;;28.00;69.80;;;;;;7317105;19;2004206;-82
2022/06/10 11:20:27;;;;;;;1.88;1.27;;;27.10;68.80;;;;;;7417541;19;20292;-82
2022/06/10 11:23:24;;;;;;;1.42;1.10;;;28.10;72.40;;;;;;7418971;19;20325;-83
2022/06/10 11:26:04;;;;;;;2.45;1.40;;;28.90;71.30;;;;;;7319004;19;2004846;-81
2022/06/10 11:28:37;;;;;;;3.20;1.30;;;28.20;67.80;;;;;;7422245;19;20323;-80
2022/06/10 11:31:05;;;;;;;2.22;1.42;;;28.90;71.90;;;;;;7317366;19;2004537;-81
2022/06/10 11:33:32;;;;;;;2.78;1.27;;;29.60;70.00;;;;;;7420578;19;20329;-81
2022/06/10 11:36:11;;;;;;;2.08;1.30;;;29.70;67.20;;;;;;7418641;19;20333;-81
2022/06/10 11:38:45;;;;;;;3.60;1.50;;;29.10;68.80;;;;;;7399654;19;20342;-81
2022/06/10 11:41:25;;;;;;;2.63;1.38;;;29.80;69.80;;;;;;7428559;19;20332;-80
2022/06/10 11:43:59;;;;;;;3.13;1.27;;;29.60;70.90;;;;;;7422747;19;20377;-81
2022/06/10 11:46:30;;;;;;;1.50;1.15;;;28.70;69.30;;;;;;7417828;19;20313;-81
2022/06/10 11:49:14;;;;;;;2.05;1.10;;;28.90;67.50;;;;;;7422416;19;20622;-81
2022/06/10 11:51:51;;;;;;;1.40;1.10;;;29.00;65.80;;;;;;7420639;19;20324;-80
2022/06/10 11:54:48;;;;;;;1.10;1.10;;;29.20;67.80;;;;;;7418021;19;20341;-81
2022/06/10 12:00:33;;;;;;;1.60;1.20;;;29.10;64.70;;;;;;7319635;19;2004677;-80
2022/06/10 12:03:36;;;;;;;4.07;1.30;;;29.70;67.00;;;;;;7209567;19;2004437;-81
2022/06/10 12:06:37;;;;;;;2.58;1.20;;;29.60;65.80;;;;;;7318870;19;2004332;-81
2022/06/10 12:09:32;;;;;;;2.65;1.20;;;29.60;62.00;;;;;;7321159;19;2004286;-83
2022/06/10 12:14:55;;;;;;;3.70;1.67;;;29.80;65.60;;;;;;7418678;19;20324;-81
2022/06/10 12:17:32;;;;;;;1.23;1.10;;;29.90;65.10;;;;;;7419373;19;20360;-83
2022/06/10 12:20:18;;;;;;;3.03;1.23;;;30.70;64.00;;;;;;7390639;19;20340;-82
2022/06/10 12:22:45;;;;;;;1.98;1.38;;;31.00;61.20;;;;;;7371330;19;20372;-82
2022/06/10 12:25:36;;;;;;;2.00;1.30;;;31.00;61.10;;;;;;7417083;19;20377;-81
2022/06/10 12:28:19;;;;;;;1.33;1.17;;;29.70;58.20;;;;;;7416432;19;20344;-81
2022/06/10 12:30:47;;;;;;;0.93;0.90;;;30.70;61.30;;;;;;7418680;19;20445;-83
2022/06/10 12:33:22;;;;;;;2.70;1.27;;;30.80;59.60;;;;;;7416043;19;20340;-80
2022/06/10 12:35:48;;;;;;;1.10;1.10;;;30.80;59.50;;;;;;7406629;19;20369;-83
2022/06/10 12:38:20;;;;;;;1.47;1.10;;;31.00;58.30;;;;;;7415295;19;20317;-81
2022/06/10 12:40:55;;;;;;;1.30;1.20;;;29.90;60.90;;;;;;7243020;19;2004321;-81
2022/06/10 12:43:29;;;;;;;2.53;1.50;;;30.00;59.50;;;;;;7390580;19;20513;-82
2022/06/10 12:46:32;;;;;;;1.75;1.20;;;30.60;58.90;;;;;;7413682;19;20369;-82
2022/06/10 12:49:17;;;;;;;1.48;1.30;;;29.00;55.40;;;;;;7417623;19;20885;-81
2022/06/10 12:51:47;;;;;;;2.55;1.27;;;30.30;58.30;;;;;;7417514;19;20377;-82
2022/06/10 12:54:37;;;;;;;1.65;1.23;;;30.70;60.50;;;;;;7393835;19;20325;-82
2022/06/10 12:57:21;;;;;;;2.08;1.30;;;31.60;58.40;;;;;;7411241;19;20305;-82
2022/06/10 12:59:47;;;;;;;1.98;1.40;;;31.40;57.70;;;;;;7315804;19;2004313;-80
2022/06/10 13:02:43;;;;;;;1.33;1.10;;;31.60;57.20;;;;;;7413427;19;20432;-81
2022/06/10 13:05:23;;;;;;;4.00;1.33;;;31.90;57.30;;;;;;7311249;19;2004406;-82
2022/06/10 13:07:50;;;;;;;1.73;1.30;;;32.30;55.70;;;;;;7411993;19;21364;-82
2022/06/10 13:10:40;;;;;;;2.35;1.85;;;31.10;54.30;;;;;;7411959;19;20323;-82
2022/06/10 13:13:23;;;;;;;1.30;1.20;;;31.60;58.00;;;;;;7309963;19;2004178;-82
2022/06/10 13:15:51;;;;;;;1.60;1.13;;;30.40;54.50;;;;;;7411904;19;20389;-82
2022/06/10 13:18:32;;;;;;;1.37;1.27;;;30.90;55.40;;;;;;7405306;19;20380;-82
2022/06/10 13:21:10;;;;;;;1.75;1.10;;;29.30;56.70;;;;;;7408659;19;20352;-81
2022/06/10 13:23:46;;;;;;;1.10;1.10;;;29.90;59.90;;;;;;7422355;19;20353;-81
2022/06/10 13:26:15;;;;;;;1.70;1.20;;;30.20;57.20;;;;;;7422507;19;20349;-81
2022/06/10 13:28:43;;;;;;;1.02;1.02;;;31.10;57.30;;;;;;7419095;19;20337;-81
2022/06/10 13:31:24;;;;;;;2.87;1.40;;;31.80;58.20;;;;;;7420147;19;20301;-81
2022/06/10 13:33:56;;;;;;;3.63;1.30;;;32.00;57.50;;;;;;7317918;19;2004455;-80
2022/06/10 13:36:52;;;;;;;1.10;1.00;;;30.10;54.20;;;;;;7417214;19;20300;-81